FFL414 KASE-KDEN
Flight info
| Callsign | FFL414 |
|---|---|
| Flight time | N/A |
| Altitude | 31000 |
| Route | LINDZ1 LINDZ IDENE JNETT SSKII4 |
| Aircraft | LJ35/M-SGHRWXY/SB1 |
Departure
| Time | 2026-03-28 03:48 |
|---|---|
| Airport | Aspen-Pitkin County Airport (Sardy Field) (KASE) |
Arrival
| Time | N/A |
|---|---|
| Airport | Denver International Airport (KDEN) |
| Time | Latitude | Longitude | Altitude | Speed | Heading |
|---|---|---|---|---|---|
| 2026-03-28 03:37 | 39.22192 | -106.86543 | 7760 ft | 0 kts | 69° |
| 2026-03-28 03:43 | 39.22192 | -106.86537 | 7760 ft | 3 kts | 112° |
| 2026-03-28 03:44 | 39.22179 | -106.86549 | 7761 ft | 6 kts | 260° |
| 2026-03-28 03:44 | 39.22130 | -106.86583 | 7765 ft | 9 kts | 182° |
| 2026-03-28 03:44 | 39.22075 | -106.86592 | 7771 ft | 8 kts | 208° |
| 2026-03-28 03:44 | 39.22016 | -106.86620 | 7775 ft | 8 kts | 171° |
| 2026-03-28 03:45 | 39.21986 | -106.86607 | 7778 ft | 2 kts | 160° |
| 2026-03-28 03:45 | 39.21984 | -106.86606 | 7778 ft | 0 kts | 159° |
| 2026-03-28 03:45 | 39.21951 | -106.86590 | 7773 ft | 12 kts | 159° |
| 2026-03-28 03:45 | 39.21831 | -106.86532 | 7788 ft | 25 kts | 160° |
| 2026-03-28 03:46 | 39.21658 | -106.86451 | 7806 ft | 26 kts | 159° |
| 2026-03-28 03:46 | 39.21483 | -106.86368 | 7817 ft | 28 kts | 160° |
| 2026-03-28 03:46 | 39.21300 | -106.86281 | 7831 ft | 27 kts | 160° |
| 2026-03-28 03:46 | 39.21178 | -106.86289 | 7836 ft | 16 kts | 249° |
| 2026-03-28 03:47 | 39.21179 | -106.86344 | 7835 ft | 0 kts | 341° |
| 2026-03-28 03:47 | 39.21209 | -106.86357 | 7833 ft | 31 kts | 341° |
| 2026-03-28 03:47 | 39.21734 | -106.86607 | 7798 ft | 126 kts | 340° |
| 2026-03-28 03:47 | 39.22783 | -106.87109 | 7998 ft | 182 kts | 337° |
| 2026-03-28 03:48 | 39.24057 | -106.87709 | 8728 ft | 209 kts | 339° |
| 2026-03-28 03:48 | 39.25599 | -106.88179 | 9247 ft | 244 kts | 351° |
| 2026-03-28 03:48 | 39.27380 | -106.88545 | 9998 ft | 271 kts | 343° |
| 2026-03-28 03:48 | 39.29061 | -106.89761 | 10904 ft | 287 kts | 314° |
| 2026-03-28 03:49 | 39.30148 | -106.91935 | 11990 ft | 294 kts | 287° |
| 2026-03-28 03:49 | 39.30604 | -106.94486 | 13217 ft | 296 kts | 280° |
| 2026-03-28 03:49 | 39.31034 | -106.97102 | 14545 ft | 301 kts | 280° |
| 2026-03-28 03:49 | 39.31466 | -106.99769 | 15953 ft | 306 kts | 280° |
| 2026-03-28 03:50 | 39.31900 | -107.02460 | 17467 ft | 305 kts | 281° |
| 2026-03-28 03:50 | 39.32370 | -107.05115 | 19067 ft | 301 kts | 285° |
| 2026-03-28 03:50 | 39.33239 | -107.07544 | 20640 ft | 297 kts | 299° |
| 2026-03-28 03:50 | 39.34543 | -107.09597 | 22090 ft | 297 kts | 308° |
| 2026-03-28 03:51 | 39.35946 | -107.11577 | 23221 ft | 302 kts | 310° |
| 2026-03-28 03:51 | 39.37704 | -107.13158 | 24242 ft | 318 kts | 329° |
| 2026-03-28 03:51 | 39.39911 | -107.13856 | 25230 ft | 339 kts | 349° |
| 2026-03-28 03:51 | 39.42317 | -107.13444 | 26150 ft | 363 kts | 10° |
| 2026-03-28 03:52 | 39.44615 | -107.11874 | 27006 ft | 386 kts | 31° |
| 2026-03-28 03:52 | 39.46466 | -107.09319 | 27798 ft | 405 kts | 51° |
| 2026-03-28 03:52 | 39.47676 | -107.05955 | 28538 ft | 420 kts | 71° |
| 2026-03-28 03:52 | 39.48041 | -107.02171 | 29259 ft | 429 kts | 92° |
| 2026-03-28 03:53 | 39.47501 | -106.98366 | 29947 ft | 431 kts | 112° |
| 2026-03-28 03:53 | 39.46179 | -106.94900 | 30643 ft | 430 kts | 124° |
| 2026-03-28 03:53 | 39.44740 | -106.91476 | 31260 ft | 439 kts | 120° |
| 2026-03-28 03:53 | 39.43496 | -106.87757 | 31342 ft | 460 kts | 113° |
| 2026-03-28 03:54 | 39.42454 | -106.83745 | 31381 ft | 479 kts | 109° |
| 2026-03-28 03:54 | 39.40696 | -106.75504 | 30721 ft | 479 kts | 106° |
| 2026-03-28 03:54 | 39.39863 | -106.71310 | 30008 ft | 484 kts | 106° |
| 2026-03-28 03:55 | 39.39031 | -106.67078 | 29372 ft | 486 kts | 105° |
| 2026-03-28 03:55 | 39.38200 | -106.62840 | 28821 ft | 486 kts | 105° |
| 2026-03-28 03:55 | 39.37381 | -106.58675 | 28366 ft | 483 kts | 105° |
| 2026-03-28 03:55 | 39.36554 | -106.54490 | 27974 ft | 477 kts | 105° |
| 2026-03-28 03:56 | 39.35726 | -106.50395 | 27651 ft | 463 kts | 107° |
| 2026-03-28 03:56 | 39.34788 | -106.46479 | 27175 ft | 450 kts | 110° |
| 2026-03-28 03:56 | 39.33732 | -106.42723 | 26584 ft | 442 kts | 113° |
| 2026-03-28 03:56 | 39.32629 | -106.39035 | 25820 ft | 438 kts | 113° |
| 2026-03-28 03:57 | 39.31539 | -106.35388 | 25109 ft | 433 kts | 112° |
| 2026-03-28 03:57 | 39.30464 | -106.31786 | 24455 ft | 427 kts | 112° |
| 2026-03-28 03:57 | 39.29402 | -106.28226 | 23824 ft | 422 kts | 112° |
| 2026-03-28 03:57 | 39.28350 | -106.24706 | 23259 ft | 419 kts | 112° |
| 2026-03-28 03:58 | 39.27305 | -106.21211 | 22960 ft | 416 kts | 112° |
| 2026-03-28 03:58 | 39.26301 | -106.17771 | 22688 ft | 414 kts | 109° |
| 2026-03-28 03:58 | 39.25632 | -106.14173 | 22359 ft | 412 kts | 97° |
| 2026-03-28 03:58 | 39.25486 | -106.10500 | 22030 ft | 409 kts | 86° |
| 2026-03-28 03:59 | 39.25829 | -106.06886 | 21700 ft | 404 kts | 76° |
| 2026-03-28 03:59 | 39.26420 | -106.03348 | 21403 ft | 402 kts | 74° |
| 2026-03-28 03:59 | 39.27024 | -105.99834 | 21138 ft | 399 kts | 74° |
| 2026-03-28 03:59 | 39.27624 | -105.96335 | 20847 ft | 398 kts | 74° |
| 2026-03-28 04:00 | 39.28220 | -105.92852 | 20531 ft | 397 kts | 74° |
| 2026-03-28 04:00 | 39.28811 | -105.89375 | 20274 ft | 395 kts | 74° |
| 2026-03-28 04:00 | 39.29396 | -105.85903 | 20099 ft | 397 kts | 75° |
| 2026-03-28 04:00 | 39.29981 | -105.82393 | 20097 ft | 403 kts | 75° |
| 2026-03-28 04:01 | 39.30566 | -105.78873 | 20091 ft | 409 kts | 75° |
| 2026-03-28 04:01 | 39.31170 | -105.75263 | 20096 ft | 413 kts | 75° |
| 2026-03-28 04:01 | 39.31787 | -105.71624 | 20113 ft | 416 kts | 73° |
| 2026-03-28 04:01 | 39.32567 | -105.68022 | 20108 ft | 417 kts | 68° |
| 2026-03-28 04:02 | 39.33567 | -105.64548 | 20098 ft | 404 kts | 63° |
| 2026-03-28 04:02 | 39.34702 | -105.61307 | 19826 ft | 389 kts | 60° |
| 2026-03-28 04:02 | 39.35851 | -105.58166 | 19337 ft | 384 kts | 60° |
| 2026-03-28 04:02 | 39.36985 | -105.55059 | 18771 ft | 381 kts | 60° |
| 2026-03-28 04:03 | 39.38110 | -105.51972 | 18245 ft | 378 kts | 60° |
| 2026-03-28 04:03 | 39.39223 | -105.48915 | 17746 ft | 374 kts | 60° |
| 2026-03-28 04:03 | 39.40323 | -105.45887 | 17237 ft | 370 kts | 60° |
| 2026-03-28 04:03 | 39.41445 | -105.42965 | 17173 ft | 355 kts | 56° |
| 2026-03-28 04:04 | 39.42699 | -105.40285 | 17117 ft | 342 kts | 51° |
| 2026-03-28 04:04 | 39.44026 | -105.37781 | 17103 ft | 331 kts | 50° |
| 2026-03-28 04:04 | 39.45327 | -105.35388 | 17079 ft | 319 kts | 49° |
| 2026-03-28 04:04 | 39.46588 | -105.33072 | 16812 ft | 317 kts | 49° |
| 2026-03-28 04:05 | 39.47896 | -105.30688 | 16128 ft | 331 kts | 50° |
| 2026-03-28 04:05 | 39.48782 | -105.29075 | 15859 ft | 332 kts | 50° |
| 2026-03-28 04:05 | 39.50114 | -105.26635 | 15629 ft | 330 kts | 50° |
| 2026-03-28 04:05 | 39.51414 | -105.24233 | 15600 ft | 322 kts | 51° |
| 2026-03-28 04:06 | 39.53087 | -105.21135 | 15553 ft | 311 kts | 50° |
| 2026-03-28 04:06 | 39.54351 | -105.18811 | 15532 ft | 324 kts | 50° |
| 2026-03-28 04:06 | 39.55223 | -105.17205 | 15481 ft | 322 kts | 50° |
| 2026-03-28 04:06 | 39.56505 | -105.14824 | 15278 ft | 321 kts | 51° |
| 2026-03-28 04:07 | 39.57776 | -105.12453 | 14983 ft | 319 kts | 51° |
| 2026-03-28 04:07 | 39.59042 | -105.10101 | 14695 ft | 318 kts | 51° |
| 2026-03-28 04:07 | 39.60301 | -105.07763 | 14413 ft | 315 kts | 51° |
| 2026-03-28 04:07 | 39.61555 | -105.05434 | 14124 ft | 313 kts | 51° |
| 2026-03-28 04:08 | 39.62802 | -105.03115 | 13837 ft | 312 kts | 52° |
| 2026-03-28 04:08 | 39.64026 | -105.00838 | 13723 ft | 310 kts | 52° |
| 2026-03-28 04:08 | 39.65256 | -104.98546 | 13559 ft | 310 kts | 52° |
| 2026-03-28 04:08 | 39.66501 | -104.96224 | 13428 ft | 309 kts | 52° |
| 2026-03-28 04:09 | 39.67725 | -104.93939 | 13320 ft | 308 kts | 52° |
| 2026-03-28 04:09 | 39.68946 | -104.91662 | 13247 ft | 307 kts | 52° |
| 2026-03-28 04:09 | 39.70152 | -104.89411 | 13126 ft | 307 kts | 52° |
| 2026-03-28 04:09 | 39.71504 | -104.87295 | 12950 ft | 303 kts | 40° |
| 2026-03-28 04:10 | 39.73182 | -104.85668 | 12796 ft | 298 kts | 26° |
| 2026-03-28 04:10 | 39.75068 | -104.84604 | 12623 ft | 294 kts | 13° |
| 2026-03-28 04:10 | 39.77054 | -104.84114 | 12446 ft | 289 kts | 1° |
| 2026-03-28 04:10 | 39.79061 | -104.84059 | 12259 ft | 287 kts | 356° |
| 2026-03-28 04:11 | 39.81062 | -104.84042 | 12079 ft | 288 kts | 356° |
| 2026-03-28 04:11 | 39.83062 | -104.84023 | 11887 ft | 287 kts | 357° |
| 2026-03-28 04:11 | 39.85059 | -104.84002 | 11651 ft | 287 kts | 357° |
| 2026-03-28 04:11 | 39.87060 | -104.83981 | 11399 ft | 288 kts | 358° |
| 2026-03-28 04:12 | 39.89061 | -104.83953 | 11129 ft | 288 kts | 358° |
| 2026-03-28 04:12 | 39.91066 | -104.83928 | 10800 ft | 288 kts | 358° |
| 2026-03-28 04:12 | 39.93051 | -104.83907 | 10503 ft | 289 kts | 359° |
| 2026-03-28 04:12 | 39.95062 | -104.83869 | 10160 ft | 290 kts | 359° |
| 2026-03-28 04:13 | 39.97081 | -104.83822 | 9824 ft | 290 kts | 0° |
| 2026-03-28 04:13 | 39.99100 | -104.83774 | 9460 ft | 291 kts | 0° |
| 2026-03-28 04:13 | 40.01126 | -104.83723 | 9130 ft | 291 kts | 1° |
| 2026-03-28 04:13 | 40.03087 | -104.83677 | 9032 ft | 270 kts | 1° |
| 2026-03-28 04:14 | 40.04894 | -104.83638 | 8994 ft | 250 kts | 1° |
| 2026-03-28 04:14 | 40.06575 | -104.83597 | 8974 ft | 233 kts | 2° |
| 2026-03-28 04:14 | 40.08116 | -104.83139 | 8946 ft | 224 kts | 33° |
| 2026-03-28 04:14 | 40.09170 | -104.81784 | 8946 ft | 207 kts | 68° |
| 2026-03-28 04:15 | 40.09793 | -104.80049 | 8970 ft | 215 kts | 74° |
| 2026-03-28 04:15 | 40.10029 | -104.78160 | 8990 ft | 208 kts | 107° |
| 2026-03-28 04:15 | 40.09415 | -104.76519 | 9019 ft | 201 kts | 133° |
| 2026-03-28 04:15 | 40.08502 | -104.75137 | 9036 ft | 200 kts | 137° |
| 2026-03-28 04:16 | 40.07574 | -104.73828 | 9037 ft | 199 kts | 134° |
| 2026-03-28 04:16 | 40.06716 | -104.72411 | 8936 ft | 202 kts | 133° |
| 2026-03-28 04:16 | 40.05759 | -104.71027 | 8631 ft | 206 kts | 140° |
| 2026-03-28 04:16 | 40.04644 | -104.69900 | 8363 ft | 202 kts | 152° |
| 2026-03-28 04:17 | 40.03365 | -104.69255 | 8002 ft | 187 kts | 167° |
| 2026-03-28 04:17 | 40.02149 | -104.69006 | 7586 ft | 172 kts | 173° |
| 2026-03-28 04:17 | 40.00979 | -104.68892 | 7347 ft | 169 kts | 176° |
| 2026-03-28 04:17 | 39.99796 | -104.68794 | 7097 ft | 172 kts | 176° |
| 2026-03-28 04:18 | 39.98596 | -104.68741 | 6870 ft | 169 kts | 180° |
| 2026-03-28 04:18 | 39.97456 | -104.68704 | 6518 ft | 160 kts | 178° |
| 2026-03-28 04:18 | 39.96359 | -104.68648 | 6257 ft | 163 kts | 178° |
| 2026-03-28 04:18 | 39.95242 | -104.68605 | 6093 ft | 158 kts | 179° |
| 2026-03-28 04:19 | 39.94151 | -104.68614 | 5931 ft | 153 kts | 180° |
| 2026-03-28 04:19 | 39.93089 | -104.68637 | 5762 ft | 156 kts | 181° |
| 2026-03-28 04:19 | 39.92035 | -104.68652 | 5601 ft | 147 kts | 179° |
| 2026-03-28 04:19 | 39.91033 | -104.68665 | 5509 ft | 142 kts | 180° |
| 2026-03-28 04:20 | 39.90022 | -104.68674 | 5392 ft | 145 kts | 180° |
| 2026-03-28 04:20 | 39.89074 | -104.68690 | 5355 ft | 121 kts | 181° |